0.000 kWh

EHAM AMSTERDAM/SCHIPHOL NLD -3 m.
METAR EHAM 200125Z 28008KT 9999 // FEW032 14/10 Q1018 NOSIG

EHAM AMSTERDAM/SCHIPHOL NLD -3 m.
TAF EHAM 192249Z 2000/2106 24009KT 9999 SCT035
BECMG 2005/2008 27014KT
BECMG 2016/2019 22005KT CAVOK